sensor_id;sensor_type;location;lat;lon;timestamp;temperature;humidity
23755;DHT22;12057;52.042;6.830;2023-12-20T00:03:49;10.60;99.90
23755;DHT22;12057;52.042;6.830;2023-12-20T00:08:50;10.50;99.90
23755;DHT22;12057;52.042;6.830;2023-12-20T00:13:51;10.40;99.90
23755;DHT22;12057;52.042;6.830;2023-12-20T00:18:52;10.30;99.90
23755;DHT22;12057;52.042;6.830;2023-12-20T00:23:53;10.20;99.90
23755;DHT22;12057;52.042;6.830;2023-12-20T00:28:54;10.10;99.90
23755;DHT22;12057;52.042;6.830;2023-12-20T00:33:54;10.00;99.90
23755;DHT22;12057;52.042;6.830;2023-12-20T00:38:56;10.10;99.90
23755;DHT22;12057;52.042;6.830;2023-12-20T00:43:56;10.00;99.90
23755;DHT22;12057;52.042;6.830;2023-12-20T00:48:57;9.80;99.90
23755;DHT22;12057;52.042;6.830;2023-12-20T00:53:58;9.80;99.90
23755;DHT22;12057;52.042;6.830;2023-12-20T00:58:59;9.90;99.90
23755;DHT22;12057;52.042;6.830;2023-12-20T01:03:59;9.80;99.90
23755;DHT22;12057;52.042;6.830;2023-12-20T01:09:00;9.70;99.90
23755;DHT22;12057;52.042;6.830;2023-12-20T01:14:01;9.70;99.90
23755;DHT22;12057;52.042;6.830;2023-12-20T01:19:02;9.60;99.90
23755;DHT22;12057;52.042;6.830;2023-12-20T01:24:03;9.80;99.90
23755;DHT22;12057;52.042;6.830;2023-12-20T01:29:04;9.60;99.90
23755;DHT22;12057;52.042;6.830;2023-12-20T01:34:05;9.50;99.90
23755;DHT22;12057;52.042;6.830;2023-12-20T01:39:08;9.60;99.90
23755;DHT22;12057;52.042;6.830;2023-12-20T01:44:09;9.30;99.90
23755;DHT22;12057;52.042;6.830;2023-12-20T01:49:16;9.10;99.90
23755;DHT22;12057;52.042;6.830;2023-12-20T01:54:17;9.40;99.90
23755;DHT22;12057;52.042;6.830;2023-12-20T01:59:20;9.30;99.90
23755;DHT22;12057;52.042;6.830;2023-12-20T02:04:22;9.30;99.90
23755;DHT22;12057;52.042;6.830;2023-12-20T02:09:23;9.20;99.90
23755;DHT22;12057;52.042;6.830;2023-12-20T02:14:23;9.10;99.90
23755;DHT22;12057;52.042;6.830;2023-12-20T02:19:24;9.20;99.90
23755;DHT22;12057;52.042;6.830;2023-12-20T02:24:25;9.00;99.90
23755;DHT22;12057;52.042;6.830;2023-12-20T02:29:26;9.00;99.90
23755;DHT22;12057;52.042;6.830;2023-12-20T02:34:27;9.00;99.90
23755;DHT22;12057;52.042;6.830;2023-12-20T02:39:28;8.90;99.90
23755;DHT22;12057;52.042;6.830;2023-12-20T02:44:29;8.90;99.90
23755;DHT22;12057;52.042;6.830;2023-12-20T02:49:29;8.90;99.90
23755;DHT22;12057;52.042;6.830;2023-12-20T02:54:30;9.00;99.90
23755;DHT22;12057;52.042;6.830;2023-12-20T02:59:31;9.00;99.90
23755;DHT22;12057;52.042;6.830;2023-12-20T03:04:32;8.90;99.90
23755;DHT22;12057;52.042;6.830;2023-12-20T03:09:32;8.80;99.90
23755;DHT22;12057;52.042;6.830;2023-12-20T03:14:33;8.90;99.90
23755;DHT22;12057;52.042;6.830;2023-12-20T03:19:34;8.90;99.90
23755;DHT22;12057;52.042;6.830;2023-12-20T03:24:35;8.90;99.90
23755;DHT22;12057;52.042;6.830;2023-12-20T03:29:36;9.00;99.90
23755;DHT22;12057;52.042;6.830;2023-12-20T03:34:36;9.00;99.90
23755;DHT22;12057;52.042;6.830;2023-12-20T03:39:37;9.20;99.90
23755;DHT22;12057;52.042;6.830;2023-12-20T03:44:41;9.20;99.90
23755;DHT22;12057;52.042;6.830;2023-12-20T03:49:45;9.10;99.90
23755;DHT22;12057;52.042;6.830;2023-12-20T03:54:48;9.20;99.90
23755;DHT22;12057;52.042;6.830;2023-12-20T03:59:49;9.20;99.90
23755;DHT22;12057;52.042;6.830;2023-12-20T04:04:50;9.20;99.90
23755;DHT22;12057;52.042;6.830;2023-12-20T04:09:51;9.30;99.90
23755;DHT22;12057;52.042;6.830;2023-12-20T04:14:55;9.10;99.90
23755;DHT22;12057;52.042;6.830;2023-12-20T04:19:58;9.30;99.90
23755;DHT22;12057;52.042;6.830;2023-12-20T04:24:59;9.10;99.90
23755;DHT22;12057;52.042;6.830;2023-12-20T04:30:03;9.30;99.90
23755;DHT22;12057;52.042;6.830;2023-12-20T04:35:04;9.30;99.90
23755;DHT22;12057;52.042;6.830;2023-12-20T04:40:06;9.30;99.90
23755;DHT22;12057;52.042;6.830;2023-12-20T04:45:08;9.20;99.90
23755;DHT22;12057;52.042;6.830;2023-12-20T04:50:09;9.20;99.90
23755;DHT22;12057;52.042;6.830;2023-12-20T04:55:14;9.20;99.90
23755;DHT22;12057;52.042;6.830;2023-12-20T05:00:15;9.30;99.90
23755;DHT22;12057;52.042;6.830;2023-12-20T05:05:16;9.20;99.90
23755;DHT22;12057;52.042;6.830;2023-12-20T05:10:18;9.20;99.90
23755;DHT22;12057;52.042;6.830;2023-12-20T05:15:19;9.40;99.90
23755;DHT22;12057;52.042;6.830;2023-12-20T05:20:19;9.40;99.90
23755;DHT22;12057;52.042;6.830;2023-12-20T05:25:20;9.30;99.90
23755;DHT22;12057;52.042;6.830;2023-12-20T05:30:21;9.40;99.90
23755;DHT22;12057;52.042;6.830;2023-12-20T05:35:22;9.30;99.90
23755;DHT22;12057;52.042;6.830;2023-12-20T05:40:23;9.20;99.90
23755;DHT22;12057;52.042;6.830;2023-12-20T05:45:24;9.20;99.90
23755;DHT22;12057;52.042;6.830;2023-12-20T05:50:25;9.10;99.90
23755;DHT22;12057;52.042;6.830;2023-12-20T05:55:26;9.20;99.90
23755;DHT22;12057;52.042;6.830;2023-12-20T06:00:26;9.30;99.90
23755;DHT22;12057;52.042;6.830;2023-12-20T06:05:27;9.50;99.90
23755;DHT22;12057;52.042;6.830;2023-12-20T06:10:31;9.40;99.90
23755;DHT22;12057;52.042;6.830;2023-12-20T06:15:32;9.60;99.90
23755;DHT22;12057;52.042;6.830;2023-12-20T06:20:33;9.80;99.90
23755;DHT22;12057;52.042;6.830;2023-12-20T06:25:37;9.70;99.90
23755;DHT22;12057;52.042;6.830;2023-12-20T06:30:41;9.50;99.90
23755;DHT22;12057;52.042;6.830;2023-12-20T06:35:41;9.50;99.90
23755;DHT22;12057;52.042;6.830;2023-12-20T06:40:42;9.50;99.90
23755;DHT22;12057;52.042;6.830;2023-12-20T06:45:43;9.50;99.90
23755;DHT22;12057;52.042;6.830;2023-12-20T06:50:44;9.80;99.90
23755;DHT22;12057;52.042;6.830;2023-12-20T06:55:48;9.60;99.90
23755;DHT22;12057;52.042;6.830;2023-12-20T07:00:49;9.90;99.90
23755;DHT22;12057;52.042;6.830;2023-12-20T07:05:49;9.90;99.90
23755;DHT22;12057;52.042;6.830;2023-12-20T07:10:50;9.60;99.90
23755;DHT22;12057;52.042;6.830;2023-12-20T07:15:51;10.00;99.90
23755;DHT22;12057;52.042;6.830;2023-12-20T07:20:52;9.80;99.90
23755;DHT22;12057;52.042;6.830;2023-12-20T07:25:54;9.70;99.90
23755;DHT22;12057;52.042;6.830;2023-12-20T07:30:55;9.70;99.90
23755;DHT22;12057;52.042;6.830;2023-12-20T07:35:55;9.80;99.90
23755;DHT22;12057;52.042;6.830;2023-12-20T07:40:56;9.70;99.90
23755;DHT22;12057;52.042;6.830;2023-12-20T07:46:07;9.80;99.90
23755;DHT22;12057;52.042;6.830;2023-12-20T07:51:08;9.80;99.90
23755;DHT22;12057;52.042;6.830;2023-12-20T07:56:17;9.70;99.90
23755;DHT22;12057;52.042;6.830;2023-12-20T08:01:21;9.70;99.90
23755;DHT22;12057;52.042;6.830;2023-12-20T08:06:22;9.80;99.90
23755;DHT22;12057;52.042;6.830;2023-12-20T08:11:23;9.70;99.90
23755;DHT22;12057;52.042;6.830;2023-12-20T08:16:23;9.70;99.90
23755;DHT22;12057;52.042;6.830;2023-12-20T08:21:24;9.80;99.90
23755;DHT22;12057;52.042;6.830;2023-12-20T08:26:25;9.90;99.90
23755;DHT22;12057;52.042;6.830;2023-12-20T08:31:26;9.70;99.90
23755;DHT22;12057;52.042;6.830;2023-12-20T08:36:27;9.70;99.90
23755;DHT22;12057;52.042;6.830;2023-12-20T08:41:28;9.70;99.90
23755;DHT22;12057;52.042;6.830;2023-12-20T08:46:28;9.70;99.90
23755;DHT22;12057;52.042;6.830;2023-12-20T08:51:29;10.00;99.90
23755;DHT22;12057;52.042;6.830;2023-12-20T08:56:30;9.80;99.90
23755;DHT22;12057;52.042;6.830;2023-12-20T09:01:31;9.90;99.90
23755;DHT22;12057;52.042;6.830;2023-12-20T09:06:32;10.10;99.90
23755;DHT22;12057;52.042;6.830;2023-12-20T09:11:36;9.80;99.90
23755;DHT22;12057;52.042;6.830;2023-12-20T09:16:37;10.00;99.90
23755;DHT22;12057;52.042;6.830;2023-12-20T09:21:38;9.90;99.90
23755;DHT22;12057;52.042;6.830;2023-12-20T09:26:38;9.80;99.90
23755;DHT22;12057;52.042;6.830;2023-12-20T09:31:40;9.80;99.90
23755;DHT22;12057;52.042;6.830;2023-12-20T09:36:41;9.90;99.90
23755;DHT22;12057;52.042;6.830;2023-12-20T09:42:01;9.70;99.90
23755;DHT22;12057;52.042;6.830;2023-12-20T09:47:03;9.90;99.90
23755;DHT22;12057;52.042;6.830;2023-12-20T09:52:05;9.60;99.90
23755;DHT22;12057;52.042;6.830;2023-12-20T09:57:06;9.90;99.90
23755;DHT22;12057;52.042;6.830;2023-12-20T10:02:12;9.80;99.90
23755;DHT22;12057;52.042;6.830;2023-12-20T10:07:15;9.70;99.90
23755;DHT22;12057;52.042;6.830;2023-12-20T10:12:16;9.90;99.90
23755;DHT22;12057;52.042;6.830;2023-12-20T10:17:17;10.10;99.90
23755;DHT22;12057;52.042;6.830;2023-12-20T10:22:17;9.60;99.90
23755;DHT22;12057;52.042;6.830;2023-12-20T10:27:18;9.70;99.90
23755;DHT22;12057;52.042;6.830;2023-12-20T10:32:26;9.70;99.90
23755;DHT22;12057;52.042;6.830;2023-12-20T10:37:27;9.70;99.90
23755;DHT22;12057;52.042;6.830;2023-12-20T10:42:28;10.10;99.90
23755;DHT22;12057;52.042;6.830;2023-12-20T10:47:30;9.90;99.90
23755;DHT22;12057;52.042;6.830;2023-12-20T10:52:32;9.70;99.90
23755;DHT22;12057;52.042;6.830;2023-12-20T10:57:36;10.20;99.90
23755;DHT22;12057;52.042;6.830;2023-12-20T11:02:39;10.20;99.90
23755;DHT22;12057;52.042;6.830;2023-12-20T11:07:54;10.10;99.90
23755;DHT22;12057;52.042;6.830;2023-12-20T11:13:16;10.10;99.90
23755;DHT22;12057;52.042;6.830;2023-12-20T11:18:18;10.00;99.90
23755;DHT22;12057;52.042;6.830;2023-12-20T11:23:24;10.40;99.90
23755;DHT22;12057;52.042;6.830;2023-12-20T11:28:25;10.50;99.90
23755;DHT22;12057;52.042;6.830;2023-12-20T11:33:36;10.70;99.90
23755;DHT22;12057;52.042;6.830;2023-12-20T11:38:54;10.50;99.90
23755;DHT22;12057;52.042;6.830;2023-12-20T11:43:56;10.90;99.90
23755;DHT22;12057;52.042;6.830;2023-12-20T11:48:57;10.90;99.90
23755;DHT22;12057;52.042;6.830;2023-12-20T11:53:58;10.90;99.90
23755;DHT22;12057;52.042;6.830;2023-12-20T11:58:58;11.10;99.90
23755;DHT22;12057;52.042;6.830;2023-12-20T12:04:06;11.00;99.90
23755;DHT22;12057;52.042;6.830;2023-12-20T12:09:06;11.30;99.90
23755;DHT22;12057;52.042;6.830;2023-12-20T12:14:08;11.20;99.90
23755;DHT22;12057;52.042;6.830;2023-12-20T12:19:20;11.80;99.90
23755;DHT22;12057;52.042;6.830;2023-12-20T12:24:21;11.60;99.90
23755;DHT22;12057;52.042;6.830;2023-12-20T12:29:27;11.60;99.90
23755;DHT22;12057;52.042;6.830;2023-12-20T12:34:28;12.00;99.90
23755;DHT22;12057;52.042;6.830;2023-12-20T12:39:29;11.90;99.90
23755;DHT22;12057;52.042;6.830;2023-12-20T12:44:30;11.30;99.90
23755;DHT22;12057;52.042;6.830;2023-12-20T12:49:32;11.20;99.90
23755;DHT22;12057;52.042;6.830;2023-12-20T12:54:33;11.30;99.90
23755;DHT22;12057;52.042;6.830;2023-12-20T12:59:33;11.30;99.90
23755;DHT22;12057;52.042;6.830;2023-12-20T13:04:35;11.00;99.90
23755;DHT22;12057;52.042;6.830;2023-12-20T13:09:36;11.30;99.90
23755;DHT22;12057;52.042;6.830;2023-12-20T13:14:37;11.10;99.90
23755;DHT22;12057;52.042;6.830;2023-12-20T13:19:38;11.30;99.90
23755;DHT22;12057;52.042;6.830;2023-12-20T13:24:38;11.20;99.90
23755;DHT22;12057;52.042;6.830;2023-12-20T13:29:42;11.10;99.90
23755;DHT22;12057;52.042;6.830;2023-12-20T13:34:43;11.10;99.90
23755;DHT22;12057;52.042;6.830;2023-12-20T13:39:44;11.30;99.90
23755;DHT22;12057;52.042;6.830;2023-12-20T13:44:44;11.40;99.90
23755;DHT22;12057;52.042;6.830;2023-12-20T13:49:48;11.30;99.90
23755;DHT22;12057;52.042;6.830;2023-12-20T13:54:49;11.50;99.90
23755;DHT22;12057;52.042;6.830;2023-12-20T13:59:50;11.30;99.90
23755;DHT22;12057;52.042;6.830;2023-12-20T14:04:54;11.40;99.90
23755;DHT22;12057;52.042;6.830;2023-12-20T14:09:54;11.40;99.90
23755;DHT22;12057;52.042;6.830;2023-12-20T14:14:55;11.10;99.90
23755;DHT22;12057;52.042;6.830;2023-12-20T14:19:56;11.20;99.90
23755;DHT22;12057;52.042;6.830;2023-12-20T14:24:57;11.00;99.90
23755;DHT22;12057;52.042;6.830;2023-12-20T14:29:58;11.10;99.90
23755;DHT22;12057;52.042;6.830;2023-12-20T14:34:58;11.30;99.90
23755;DHT22;12057;52.042;6.830;2023-12-20T14:39:59;11.30;99.90
23755;DHT22;12057;52.042;6.830;2023-12-20T14:45:04;11.30;99.90
23755;DHT22;12057;52.042;6.830;2023-12-20T14:50:05;11.20;99.90
23755;DHT22;12057;52.042;6.830;2023-12-20T14:55:06;11.30;99.90
23755;DHT22;12057;52.042;6.830;2023-12-20T15:00:10;11.30;99.90
23755;DHT22;12057;52.042;6.830;2023-12-20T15:05:16;11.20;99.90
23755;DHT22;12057;52.042;6.830;2023-12-20T15:10:18;11.20;99.90
23755;DHT22;12057;52.042;6.830;2023-12-20T15:15:19;11.00;99.90
23755;DHT22;12057;52.042;6.830;2023-12-20T15:20:20;11.00;99.90
23755;DHT22;12057;52.042;6.830;2023-12-20T15:25:21;11.20;99.90
23755;DHT22;12057;52.042;6.830;2023-12-20T15:30:22;11.30;99.90
23755;DHT22;12057;52.042;6.830;2023-12-20T15:35:24;10.80;99.90
23755;DHT22;12057;52.042;6.830;2023-12-20T15:40:25;11.00;99.90
23755;DHT22;12057;52.042;6.830;2023-12-20T15:45:26;11.00;99.90
23755;DHT22;12057;52.042;6.830;2023-12-20T15:50:27;10.90;99.90
23755;DHT22;12057;52.042;6.830;2023-12-20T15:55:28;10.90;99.90
23755;DHT22;12057;52.042;6.830;2023-12-20T16:00:28;10.80;99.90
23755;DHT22;12057;52.042;6.830;2023-12-20T16:05:31;11.20;99.90
23755;DHT22;12057;52.042;6.830;2023-12-20T16:10:32;10.90;99.90
23755;DHT22;12057;52.042;6.830;2023-12-20T16:15:35;11.00;99.90
23755;DHT22;12057;52.042;6.830;2023-12-20T16:20:40;11.00;99.90
23755;DHT22;12057;52.042;6.830;2023-12-20T16:25:44;11.00;99.90
23755;DHT22;12057;52.042;6.830;2023-12-20T16:30:45;11.00;99.90
23755;DHT22;12057;52.042;6.830;2023-12-20T16:35:46;11.00;99.90
23755;DHT22;12057;52.042;6.830;2023-12-20T16:40:46;11.10;99.90
23755;DHT22;12057;52.042;6.830;2023-12-20T16:45:50;11.20;99.90
23755;DHT22;12057;52.042;6.830;2023-12-20T16:50:51;11.30;99.90
23755;DHT22;12057;52.042;6.830;2023-12-20T16:55:52;11.10;99.90
23755;DHT22;12057;52.042;6.830;2023-12-20T17:00:53;10.90;99.90
23755;DHT22;12057;52.042;6.830;2023-12-20T17:05:53;11.00;99.90
23755;DHT22;12057;52.042;6.830;2023-12-20T17:10:54;11.00;99.90
23755;DHT22;12057;52.042;6.830;2023-12-20T17:15:55;11.00;99.90
23755;DHT22;12057;52.042;6.830;2023-12-20T17:20:56;11.00;99.90
23755;DHT22;12057;52.042;6.830;2023-12-20T17:25:56;11.10;99.90
23755;DHT22;12057;52.042;6.830;2023-12-20T17:31:00;10.80;99.90
23755;DHT22;12057;52.042;6.830;2023-12-20T17:36:01;10.90;99.90
23755;DHT22;12057;52.042;6.830;2023-12-20T17:41:03;10.90;99.90
23755;DHT22;12057;52.042;6.830;2023-12-20T17:46:04;10.90;99.90
23755;DHT22;12057;52.042;6.830;2023-12-20T17:51:05;11.00;99.90
23755;DHT22;12057;52.042;6.830;2023-12-20T17:56:06;10.90;99.90
23755;DHT22;12057;52.042;6.830;2023-12-20T18:01:07;10.90;99.90
23755;DHT22;12057;52.042;6.830;2023-12-20T18:06:08;10.90;99.90
23755;DHT22;12057;52.042;6.830;2023-12-20T18:11:09;11.00;99.90
23755;DHT22;12057;52.042;6.830;2023-12-20T18:16:10;11.00;99.90
23755;DHT22;12057;52.042;6.830;2023-12-20T18:21:11;11.20;99.90
23755;DHT22;12057;52.042;6.830;2023-12-20T18:26:11;10.90;99.90
23755;DHT22;12057;52.042;6.830;2023-12-20T18:31:12;10.80;99.90
23755;DHT22;12057;52.042;6.830;2023-12-20T18:36:13;11.00;99.90
23755;DHT22;12057;52.042;6.830;2023-12-20T18:41:15;11.20;99.90
23755;DHT22;12057;52.042;6.830;2023-12-20T18:46:16;11.00;99.90
23755;DHT22;12057;52.042;6.830;2023-12-20T18:51:20;11.00;99.90
23755;DHT22;12057;52.042;6.830;2023-12-20T18:56:24;11.10;99.90
23755;DHT22;12057;52.042;6.830;2023-12-20T19:01:24;10.90;99.90
23755;DHT22;12057;52.042;6.830;2023-12-20T19:06:25;10.90;99.90
23755;DHT22;12057;52.042;6.830;2023-12-20T19:11:26;11.20;99.90
23755;DHT22;12057;52.042;6.830;2023-12-20T19:16:27;11.10;99.90
23755;DHT22;12057;52.042;6.830;2023-12-20T19:21:41;11.00;99.90
23755;DHT22;12057;52.042;6.830;2023-12-20T19:26:45;11.20;99.90
23755;DHT22;12057;52.042;6.830;2023-12-20T19:31:45;11.00;99.90
23755;DHT22;12057;52.042;6.830;2023-12-20T19:36:48;11.20;99.90
23755;DHT22;12057;52.042;6.830;2023-12-20T19:41:48;11.00;99.90
23755;DHT22;12057;52.042;6.830;2023-12-20T19:46:49;10.90;99.90
23755;DHT22;12057;52.042;6.830;2023-12-20T19:51:54;10.90;99.90
23755;DHT22;12057;52.042;6.830;2023-12-20T19:56:54;11.10;99.90
23755;DHT22;12057;52.042;6.830;2023-12-20T20:01:55;11.20;99.90
23755;DHT22;12057;52.042;6.830;2023-12-20T20:06:56;11.00;99.90
23755;DHT22;12057;52.042;6.830;2023-12-20T20:11:57;11.00;99.90
23755;DHT22;12057;52.042;6.830;2023-12-20T20:16:58;11.30;99.90
23755;DHT22;12057;52.042;6.830;2023-12-20T20:22:00;11.30;99.90
23755;DHT22;12057;52.042;6.830;2023-12-20T20:27:01;11.30;99.90
23755;DHT22;12057;52.042;6.830;2023-12-20T20:32:05;11.10;99.90
23755;DHT22;12057;52.042;6.830;2023-12-20T20:37:06;11.10;99.90
23755;DHT22;12057;52.042;6.830;2023-12-20T20:42:07;11.10;99.90
23755;DHT22;12057;52.042;6.830;2023-12-20T20:47:08;11.00;99.90
23755;DHT22;12057;52.042;6.830;2023-12-20T20:52:09;11.40;99.90
23755;DHT22;12057;52.042;6.830;2023-12-20T20:57:09;11.20;99.90
23755;DHT22;12057;52.042;6.830;2023-12-20T21:02:10;11.00;99.90
23755;DHT22;12057;52.042;6.830;2023-12-20T21:07:11;11.20;99.90
23755;DHT22;12057;52.042;6.830;2023-12-20T21:12:12;11.20;99.90
23755;DHT22;12057;52.042;6.830;2023-12-20T21:17:13;11.10;99.90
23755;DHT22;12057;52.042;6.830;2023-12-20T21:22:14;11.20;99.90
23755;DHT22;12057;52.042;6.830;2023-12-20T21:27:15;11.00;99.90
23755;DHT22;12057;52.042;6.830;2023-12-20T21:32:16;11.20;99.90
23755;DHT22;12057;52.042;6.830;2023-12-20T21:37:16;11.20;99.90
23755;DHT22;12057;52.042;6.830;2023-12-20T21:42:17;11.20;99.90
23755;DHT22;12057;52.042;6.830;2023-12-20T21:47:18;11.10;99.90
23755;DHT22;12057;52.042;6.830;2023-12-20T21:52:19;11.30;99.90
23755;DHT22;12057;52.042;6.830;2023-12-20T21:57:21;11.30;99.90
23755;DHT22;12057;52.042;6.830;2023-12-20T22:02:25;11.20;99.90
23755;DHT22;12057;52.042;6.830;2023-12-20T22:07:28;11.40;99.90
23755;DHT22;12057;52.042;6.830;2023-12-20T22:12:29;11.50;99.90
23755;DHT22;12057;52.042;6.830;2023-12-20T22:17:30;11.10;99.90
23755;DHT22;12057;52.042;6.830;2023-12-20T22:22:31;11.20;99.90
23755;DHT22;12057;52.042;6.830;2023-12-20T22:27:31;11.70;99.90
23755;DHT22;12057;52.042;6.830;2023-12-20T22:32:35;11.40;99.90
23755;DHT22;12057;52.042;6.830;2023-12-20T22:37:38;11.40;99.90
23755;DHT22;12057;52.042;6.830;2023-12-20T22:42:39;11.50;99.90
23755;DHT22;12057;52.042;6.830;2023-12-20T22:47:40;11.40;99.90
23755;DHT22;12057;52.042;6.830;2023-12-20T22:52:41;11.50;99.90
23755;DHT22;12057;52.042;6.830;2023-12-20T22:57:42;11.40;99.90
23755;DHT22;12057;52.042;6.830;2023-12-20T23:02:42;11.30;99.90
23755;DHT22;12057;52.042;6.830;2023-12-20T23:07:44;11.60;99.90
23755;DHT22;12057;52.042;6.830;2023-12-20T23:12:45;11.30;99.90
23755;DHT22;12057;52.042;6.830;2023-12-20T23:17:46;11.40;99.90
23755;DHT22;12057;52.042;6.830;2023-12-20T23:22:48;11.60;99.90
23755;DHT22;12057;52.042;6.830;2023-12-20T23:27:48;11.80;99.90
23755;DHT22;12057;52.042;6.830;2023-12-20T23:32:52;11.70;99.90
23755;DHT22;12057;52.042;6.830;2023-12-20T23:37:53;11.70;99.90
23755;DHT22;12057;52.042;6.830;2023-12-20T23:42:53;11.70;99.90
23755;DHT22;12057;52.042;6.830;2023-12-20T23:47:54;11.90;99.90
23755;DHT22;12057;52.042;6.830;2023-12-20T23:52:55;12.10;99.90
23755;DHT22;12057;52.042;6.830;2023-12-20T23:57:59;12.10;99.90
